createdAt,value
2023-03-17T00:00:45.981Z,3.20
2023-03-17T00:03:23.145Z,3.95
2023-03-17T00:05:51.058Z,6.18
2023-03-17T00:08:27.838Z,4.88
2023-03-17T00:10:55.205Z,6.10
2023-03-17T00:13:24.193Z,6.95
2023-03-17T00:16:03.186Z,4.55
2023-03-17T00:18:32.001Z,3.97
2023-03-17T00:20:59.882Z,4.32
2023-03-17T00:23:26.957Z,7.35
2023-03-17T00:25:54.951Z,4.50
2023-03-17T00:28:24.798Z,4.65
2023-03-17T00:31:01.138Z,4.05
2023-03-17T00:33:30.362Z,4.75
2023-03-17T00:35:58.570Z,4.40
2023-03-17T00:38:26.699Z,3.42
2023-03-17T00:40:54.297Z,6.43
2023-03-17T00:43:22.283Z,4.63
2023-03-17T00:45:51.108Z,3.95
2023-03-17T00:48:21.375Z,3.58
2023-03-17T00:50:50.990Z,3.55
2023-03-17T00:53:22.328Z,7.80
2023-03-17T00:55:50.274Z,3.63
2023-03-17T00:58:28.898Z,3.00
2023-03-17T01:00:57.769Z,4.20
2023-03-17T01:03:25.529Z,3.97
2023-03-17T01:05:58.761Z,5.30
2023-03-17T01:08:28.005Z,4.55
2023-03-17T01:10:56.733Z,2.88
2023-03-17T01:13:24.369Z,5.00
2023-03-17T01:15:52.452Z,6.70
2023-03-17T01:18:21.444Z,5.82
2023-03-17T01:20:48.855Z,6.35
2023-03-17T01:23:17.935Z,5.30
2023-03-17T01:25:45.788Z,3.58
2023-03-17T01:28:15.968Z,4.22
2023-03-17T01:30:45.276Z,3.70
2023-03-17T01:33:14.553Z,5.32
2023-03-17T01:35:43.968Z,4.15
2023-03-17T01:38:12.706Z,4.25
2023-03-17T01:40:49.816Z,2.78
2023-03-17T01:43:29.662Z,4.75
2023-03-17T01:46:34.619Z,4.00
2023-03-17T01:49:14.468Z,5.03
2023-03-17T01:52:01.671Z,5.78
2023-03-17T01:54:36.053Z,3.50
2023-03-17T01:57:14.776Z,3.40
2023-03-17T01:59:50.310Z,3.83
2023-03-17T02:02:24.648Z,6.13
2023-03-17T02:04:52.816Z,2.92
2023-03-17T02:07:22.208Z,5.15
2023-03-17T02:09:49.705Z,2.95
2023-03-17T02:12:24.642Z,3.20
2023-03-17T02:14:52.844Z,3.72
2023-03-17T02:17:22.997Z,4.40
2023-03-17T02:19:50.573Z,4.70
2023-03-17T02:22:19.179Z,4.30
2023-03-17T02:24:55.823Z,5.20
2023-03-17T02:27:34.913Z,3.20
2023-03-17T02:30:08.104Z,6.53
2023-03-17T02:32:36.598Z,3.92
2023-03-17T02:35:05.255Z,5.00
2023-03-17T02:37:32.978Z,4.93
2023-03-17T02:40:01.740Z,4.15
2023-03-17T02:42:54.211Z,8.48
2023-03-17T02:45:23.693Z,5.00
2023-03-17T02:47:51.949Z,3.35
2023-03-17T02:50:25.422Z,3.10
2023-03-17T02:52:52.450Z,4.60
2023-03-17T02:55:19.674Z,2.80
2023-03-17T02:57:46.618Z,6.20
2023-03-17T03:00:15.952Z,2.50
2023-03-17T03:02:44.078Z,3.75
2023-03-17T03:05:12.787Z,6.53
2023-03-17T03:07:39.796Z,4.07
2023-03-17T03:10:14.813Z,6.32
2023-03-17T03:12:41.966Z,4.90
2023-03-17T03:15:10.029Z,3.45
2023-03-17T03:17:37.001Z,5.07
2023-03-17T03:20:07.326Z,4.07
2023-03-17T03:22:34.341Z,5.18
2023-03-17T03:25:02.410Z,4.15
2023-03-17T03:27:29.639Z,3.60
2023-03-17T03:29:57.168Z,3.97
2023-03-17T03:32:26.409Z,4.03
2023-03-17T03:34:54.597Z,5.68
2023-03-17T03:37:21.854Z,5.50
2023-03-17T03:39:49.769Z,3.95
2023-03-17T03:42:16.877Z,3.70
2023-03-17T03:44:43.979Z,5.32
2023-03-17T03:47:12.086Z,6.25
2023-03-17T03:49:39.032Z,4.63
2023-03-17T03:52:06.691Z,3.40
2023-03-17T03:54:35.162Z,4.03
2023-03-17T03:57:02.149Z,3.22
2023-03-17T03:59:30.619Z,3.38
2023-03-17T04:01:58.607Z,6.55
2023-03-17T04:04:32.700Z,4.78
2023-03-17T04:07:01.496Z,6.15
2023-03-17T04:09:29.473Z,3.72
2023-03-17T04:11:56.456Z,5.78
2023-03-17T04:14:23.348Z,3.50
2023-03-17T04:16:50.490Z,4.15
2023-03-17T04:19:17.497Z,3.85
2023-03-17T04:21:44.594Z,5.80
2023-03-17T04:24:11.779Z,4.22
2023-03-17T04:26:38.969Z,4.93
2023-03-17T04:29:08.036Z,3.65
2023-03-17T04:31:36.832Z,8.20
2023-03-17T04:34:03.795Z,6.45
2023-03-17T04:36:32.768Z,3.60
2023-03-17T04:38:59.635Z,4.32
2023-03-17T04:41:26.533Z,4.47
2023-03-17T04:43:54.476Z,8.77
2023-03-17T04:46:21.386Z,7.32
2023-03-17T04:48:49.243Z,7.03
2023-03-17T04:51:17.088Z,6.45
2023-03-17T04:53:44.874Z,8.82
2023-03-17T04:56:12.255Z,5.53
2023-03-17T04:58:41.269Z,5.28
2023-03-17T05:01:08.733Z,4.78
2023-03-17T05:03:35.819Z,4.35
2023-03-17T05:06:03.747Z,6.38
2023-03-17T05:08:31.578Z,9.02
2023-03-17T05:11:00.106Z,5.72
2023-03-17T05:13:27.624Z,5.43
2023-03-17T05:15:58.002Z,8.73
2023-03-17T05:18:27.300Z,6.60
2023-03-17T05:20:58.082Z,10.35
2023-03-17T05:23:26.050Z,6.18
2023-03-17T05:25:53.900Z,5.95
2023-03-17T05:28:24.852Z,9.20
2023-03-17T05:30:54.363Z,6.70
2023-03-17T05:33:23.197Z,5.95
2023-03-17T05:35:52.134Z,5.85
2023-03-17T05:38:21.269Z,8.10
2023-03-17T05:40:51.012Z,7.85
2023-03-17T05:43:18.008Z,6.88
2023-03-17T05:45:45.608Z,8.77
2023-03-17T05:48:13.482Z,8.25
2023-03-17T05:50:41.673Z,6.60
2023-03-17T05:53:09.734Z,3.67
2023-03-17T05:55:36.929Z,6.10
2023-03-17T05:58:05.907Z,6.28
2023-03-17T06:00:33.907Z,4.68
2023-03-17T06:03:04.274Z,4.88
2023-03-17T06:05:32.292Z,3.92
2023-03-17T06:08:02.422Z,6.32
2023-03-17T06:10:32.916Z,3.85
2023-03-17T06:13:03.773Z,9.60
2023-03-17T06:15:34.608Z,4.40
2023-03-17T06:18:02.771Z,8.57
2023-03-17T06:20:30.150Z,4.45
2023-03-17T06:23:04.530Z,5.47
2023-03-17T06:25:37.169Z,8.88
2023-03-17T06:28:08.787Z,6.43
2023-03-17T06:30:40.832Z,7.68
2023-03-17T06:33:12.976Z,12.10
2023-03-17T06:35:43.092Z,4.05
2023-03-17T06:38:12.830Z,6.43
2023-03-17T06:40:41.398Z,11.63
2023-03-17T06:43:08.467Z,6.38
2023-03-17T06:45:37.474Z,7.53
2023-03-17T06:48:04.728Z,6.65
2023-03-17T06:50:39.344Z,9.57
2023-03-17T06:53:08.129Z,7.82
2023-03-17T06:55:36.098Z,6.07
2023-03-17T06:58:03.272Z,5.95
2023-03-17T07:00:30.731Z,6.45
2023-03-17T07:02:59.691Z,5.88
2023-03-17T07:05:29.208Z,5.53
2023-03-17T07:08:24.607Z,9.63
2023-03-17T07:10:54.738Z,7.85
2023-03-17T07:13:47.626Z,8.10
2023-03-17T07:16:17.922Z,6.43
2023-03-17T07:18:46.692Z,5.40
2023-03-17T07:21:20.933Z,6.50
2023-03-17T07:24:05.730Z,4.78
2023-03-17T07:27:03.522Z,5.22
2023-03-17T07:29:34.491Z,9.70
2023-03-17T07:32:19.526Z,6.35
2023-03-17T07:34:49.548Z,6.50
2023-03-17T07:37:25.656Z,5.68
2023-03-17T07:39:57.637Z,6.15
2023-03-17T07:42:26.323Z,6.55
2023-03-17T07:44:59.281Z,6.05
2023-03-17T07:50:16.239Z,8.80
2023-03-17T07:52:44.699Z,8.40
2023-03-17T07:55:41.349Z,6.45
2023-03-17T07:58:15.837Z,9.20
2023-03-17T08:00:43.610Z,7.78
2023-03-17T08:03:12.736Z,7.85
2023-03-17T08:05:45.450Z,6.35
2023-03-17T08:08:15.218Z,7.22
2023-03-17T08:10:42.143Z,7.93
2023-03-17T08:13:10.117Z,7.82
2023-03-17T08:15:38.141Z,7.47
2023-03-17T08:18:05.098Z,6.68
2023-03-17T08:20:35.341Z,7.07
2023-03-17T08:23:03.771Z,6.03
2023-03-17T08:25:32.176Z,7.80
2023-03-17T08:28:04.790Z,5.07
2023-03-17T08:33:04.700Z,10.05
2023-03-17T08:35:35.111Z,8.13
2023-03-17T08:38:03.019Z,7.85
2023-03-17T08:40:32.355Z,6.60
2023-03-17T08:43:04.986Z,10.32
2023-03-17T08:45:36.373Z,7.32
2023-03-17T08:48:05.331Z,6.78
2023-03-17T08:50:36.098Z,8.35
2023-03-17T08:53:04.472Z,7.85
2023-03-17T08:55:33.344Z,8.82
2023-03-17T08:58:02.884Z,8.35
2023-03-17T09:00:30.233Z,4.93
2023-03-17T09:03:00.446Z,8.00
2023-03-17T09:05:31.636Z,5.40
2023-03-17T09:08:02.716Z,7.93
2023-03-17T09:10:32.176Z,10.27
2023-03-17T09:13:04.623Z,10.07
2023-03-17T09:15:34.101Z,7.45
2023-03-17T09:18:02.155Z,8.20
2023-03-17T09:20:32.369Z,5.40
2023-03-17T09:23:09.269Z,10.80
2023-03-17T09:25:39.912Z,8.00
2023-03-17T09:28:07.293Z,7.93
2023-03-17T09:30:44.013Z,9.15
2023-03-17T09:33:13.531Z,7.72
2023-03-17T09:35:41.709Z,14.93
2023-03-17T09:38:09.465Z,10.82
2023-03-17T09:40:49.841Z,10.90
2023-03-17T09:43:33.147Z,10.75
2023-03-17T09:46:23.025Z,9.25
2023-03-17T09:49:21.193Z,7.80
2023-03-17T09:51:51.796Z,10.23
2023-03-17T09:54:34.869Z,6.90
2023-03-17T09:57:18.670Z,8.67
2023-03-17T10:02:39.402Z,9.63
2023-03-17T10:05:27.969Z,9.27
2023-03-17T10:08:29.574Z,11.65
2023-03-17T10:11:23.529Z,8.13
2023-03-17T10:14:08.482Z,9.23
2023-03-17T10:17:19.716Z,35.95
2023-03-17T10:20:08.551Z,7.45
2023-03-17T10:22:56.464Z,9.20
2023-03-17T10:25:32.006Z,14.05
2023-03-17T10:28:08.757Z,10.63
2023-03-17T10:30:37.374Z,11.52
2023-03-17T10:33:07.337Z,10.63
2023-03-17T10:35:38.604Z,10.55
2023-03-17T10:38:20.359Z,9.38
2023-03-17T10:41:07.659Z,10.27
2023-03-17T10:43:50.034Z,7.88
2023-03-17T10:46:38.191Z,8.00
2023-03-17T10:49:16.634Z,8.18
2023-03-17T10:51:46.791Z,8.07
2023-03-17T10:54:18.971Z,9.30
2023-03-17T10:57:01.607Z,9.63
2023-03-17T10:59:37.821Z,10.18
2023-03-17T11:02:21.139Z,8.15
2023-03-17T11:04:48.489Z,8.95
2023-03-17T11:07:40.803Z,10.82
2023-03-17T11:10:20.371Z,10.45
2023-03-17T11:12:54.300Z,8.88
2023-03-17T11:15:22.838Z,5.53
2023-03-17T11:18:02.129Z,8.38
2023-03-17T11:20:42.179Z,10.35
2023-03-17T11:23:38.833Z,8.52
2023-03-17T11:26:17.810Z,7.50
2023-03-17T11:28:56.655Z,6.78
2023-03-17T11:31:39.424Z,8.18
2023-03-17T11:34:20.161Z,6.53
2023-03-17T11:36:58.725Z,5.93
2023-03-17T11:39:54.402Z,7.30
2023-03-17T11:42:48.807Z,7.95
2023-03-17T11:45:32.021Z,10.38
2023-03-17T11:48:14.011Z,11.07
2023-03-17T11:51:00.169Z,7.55
2023-03-17T11:53:36.697Z,8.90
2023-03-17T11:56:33.600Z,6.15
2023-03-17T11:59:34.425Z,7.85
2023-03-17T12:02:20.130Z,8.75
2023-03-17T12:05:05.166Z,6.40
2023-03-17T12:07:40.162Z,11.20
2023-03-17T12:10:28.809Z,7.78
2023-03-17T12:13:07.483Z,7.38
2023-03-17T12:15:44.162Z,9.63
2023-03-17T12:18:33.259Z,11.57
2023-03-17T12:21:32.852Z,7.68
2023-03-17T12:24:21.150Z,11.73
2023-03-17T12:27:14.455Z,6.07
2023-03-17T12:32:53.551Z,5.80
2023-03-17T12:35:35.407Z,6.45
2023-03-17T12:38:09.787Z,7.63
2023-03-17T12:40:45.939Z,12.27
2023-03-17T12:43:42.390Z,8.82
2023-03-17T12:46:20.575Z,7.25
2023-03-17T12:49:17.015Z,6.57
2023-03-17T12:52:07.634Z,8.20
2023-03-17T12:54:37.128Z,8.00
2023-03-17T12:57:21.062Z,6.57
2023-03-17T12:59:54.712Z,7.43
2023-03-17T13:02:28.034Z,8.35
2023-03-17T13:05:01.104Z,6.82
2023-03-17T13:07:53.904Z,9.15
2023-03-17T13:13:40.647Z,6.90
2023-03-17T13:16:27.003Z,7.38
2023-03-17T13:19:15.742Z,9.32
2023-03-17T13:21:57.928Z,6.82
2023-03-17T13:24:53.031Z,7.05
2023-03-17T13:27:32.996Z,5.25
2023-03-17T13:30:22.107Z,6.30
2023-03-17T13:33:03.730Z,5.95
2023-03-17T13:35:45.315Z,6.70
2023-03-17T13:38:29.630Z,7.45
2023-03-17T13:41:33.778Z,6.38
2023-03-17T13:44:08.083Z,8.88
2023-03-17T13:46:55.322Z,9.27
2023-03-17T13:49:36.732Z,7.45
2023-03-17T13:52:22.500Z,8.32
2023-03-17T13:55:02.401Z,8.93
2023-03-17T13:57:38.942Z,9.57
2023-03-17T14:03:10.409Z,7.90
2023-03-17T14:05:39.625Z,9.43
2023-03-17T14:08:17.642Z,10.85
2023-03-17T14:10:54.298Z,8.10
2023-03-17T14:13:25.667Z,9.48
2023-03-17T14:16:12.716Z,6.57
2023-03-17T14:18:43.913Z,5.85
2023-03-17T14:21:27.386Z,7.95
2023-03-17T14:23:59.415Z,8.30
2023-03-17T14:26:30.289Z,5.53
2023-03-17T14:29:05.062Z,8.52
2023-03-17T14:31:32.263Z,7.78
2023-03-17T14:34:02.260Z,8.65
2023-03-17T14:36:33.873Z,8.82
2023-03-17T14:39:01.237Z,10.57
2023-03-17T14:41:31.194Z,6.47
2023-03-17T14:44:00.673Z,5.47
2023-03-17T14:46:38.834Z,9.70
2023-03-17T14:49:21.010Z,6.63
2023-03-17T14:51:53.395Z,7.10
2023-03-17T14:54:34.823Z,6.55
2023-03-17T14:57:07.564Z,8.50
2023-03-17T14:59:43.599Z,8.88
2023-03-17T15:02:24.539Z,9.20
2023-03-17T15:05:02.881Z,8.52
2023-03-17T15:07:42.367Z,8.60
2023-03-17T15:10:17.889Z,9.55
2023-03-17T15:12:49.217Z,5.38
2023-03-17T15:15:21.595Z,6.75
2023-03-17T15:17:55.772Z,10.35
2023-03-17T15:20:27.654Z,5.80
2023-03-17T15:23:37.014Z,5.37
2023-03-17T15:26:27.484Z,4.80
2023-03-17T15:29:07.397Z,8.10
2023-03-17T15:31:34.743Z,7.68
2023-03-17T15:34:02.699Z,8.05
2023-03-17T15:39:13.120Z,4.43
2023-03-17T15:41:40.285Z,8.13
2023-03-17T15:44:17.268Z,6.38
2023-03-17T15:46:48.029Z,7.60
2023-03-17T15:49:18.486Z,7.00
2023-03-17T15:51:45.607Z,9.00
2023-03-17T15:54:15.223Z,7.03
2023-03-17T15:56:44.281Z,6.38
2023-03-17T15:59:13.733Z,7.03
2023-03-17T16:01:41.298Z,6.18
2023-03-17T16:04:11.341Z,6.70
2023-03-17T16:06:39.496Z,6.20
2023-03-17T16:09:30.224Z,8.93
2023-03-17T16:12:03.486Z,7.47
2023-03-17T16:14:31.520Z,6.13
2023-03-17T16:17:09.289Z,10.95
2023-03-17T16:19:51.085Z,6.40
2023-03-17T16:22:41.786Z,8.90
2023-03-17T16:31:32.849Z,9.68
2023-03-17T16:34:22.194Z,11.30
2023-03-17T16:36:54.587Z,9.07
2023-03-17T16:39:26.334Z,7.95
2023-03-17T16:42:03.308Z,10.68
2023-03-17T16:44:42.197Z,6.57
2023-03-17T16:47:25.796Z,9.52
2023-03-17T16:55:34.077Z,8.85
2023-03-17T16:58:44.970Z,10.85
2023-03-17T17:01:31.630Z,9.07
2023-03-17T17:07:18.134Z,8.57
2023-03-17T17:09:55.539Z,7.40
2023-03-17T17:12:28.879Z,8.95
2023-03-17T17:15:01.746Z,10.65
2023-03-17T17:20:27.208Z,6.32
2023-03-17T17:23:00.718Z,12.07
2023-03-17T17:28:19.465Z,8.40
2023-03-17T17:30:48.731Z,10.30
2023-03-17T17:36:17.734Z,17.27
2023-03-17T17:38:48.861Z,11.07
2023-03-17T17:41:23.781Z,11.80
2023-03-17T17:43:58.992Z,10.07
2023-03-17T17:49:24.762Z,15.32
2023-03-17T17:52:47.611Z,15.68
2023-03-17T17:58:05.335Z,14.13
2023-03-17T18:00:51.252Z,12.63
2023-03-17T18:03:32.209Z,15.48
2023-03-17T18:09:09.982Z,15.52
2023-03-17T18:11:41.508Z,15.88
2023-03-17T18:14:15.493Z,12.70
2023-03-17T18:16:45.859Z,15.05
2023-03-17T18:19:14.913Z,15.05
2023-03-17T18:21:47.797Z,13.02
2023-03-17T18:27:52.442Z,11.30
2023-03-17T18:46:10.486Z,16.23
2023-03-17T18:52:49.075Z,15.30
2023-03-17T18:55:34.447Z,17.23
2023-03-17T19:07:11.908Z,14.93
2023-03-17T19:14:15.073Z,16.02
2023-03-17T19:16:50.262Z,17.40
2023-03-17T19:22:14.537Z,11.88
2023-03-17T19:25:09.313Z,16.02
2023-03-17T19:28:10.458Z,16.02
2023-03-17T19:30:46.232Z,17.10
2023-03-17T19:33:18.368Z,21.08
2023-03-17T19:35:55.298Z,18.60
2023-03-17T19:41:35.365Z,15.80
2023-03-17T19:46:46.986Z,15.07
2023-03-17T19:49:17.545Z,20.80
2023-03-17T19:51:48.203Z,13.98
2023-03-17T19:54:23.263Z,17.17
2023-03-17T19:56:51.540Z,19.25
2023-03-17T19:59:20.103Z,20.73
2023-03-17T20:01:49.363Z,23.98
2023-03-17T20:04:21.685Z,14.70
2023-03-17T20:06:55.331Z,22.45
2023-03-17T20:09:27.951Z,20.40
2023-03-17T20:14:27.889Z,21.33
2023-03-17T20:16:57.402Z,21.67
2023-03-17T20:19:42.916Z,24.20
2023-03-17T20:22:13.660Z,18.70
2023-03-17T20:24:41.048Z,16.95
2023-03-17T20:27:10.559Z,19.30
2023-03-17T20:29:39.939Z,19.00
2023-03-17T20:32:08.064Z,22.52
2023-03-17T20:34:37.530Z,26.30
2023-03-17T20:37:05.556Z,20.58
2023-03-17T20:39:33.987Z,25.35
2023-03-17T20:42:06.817Z,23.02
2023-03-17T20:44:35.782Z,35.10
2023-03-17T20:47:04.250Z,20.65
2023-03-17T20:49:34.770Z,21.80
2023-03-17T20:52:15.946Z,28.05
2023-03-17T20:54:44.282Z,25.15
2023-03-17T20:57:24.600Z,24.35
2023-03-17T20:59:52.065Z,20.58
2023-03-17T21:02:24.746Z,26.27
2023-03-17T21:04:53.318Z,22.48
2023-03-17T21:07:21.943Z,19.80
2023-03-17T21:09:49.005Z,28.58
2023-03-17T21:12:20.518Z,24.23
2023-03-17T21:14:53.074Z,23.67
2023-03-17T21:19:48.599Z,19.25
2023-03-17T21:22:26.411Z,27.80
2023-03-17T21:24:54.350Z,24.88
2023-03-17T21:30:15.412Z,22.40
2023-03-17T21:32:43.517Z,23.35
2023-03-17T21:35:14.385Z,23.55
2023-03-17T21:37:46.851Z,24.27
2023-03-17T21:42:58.675Z,28.38
2023-03-17T21:45:25.988Z,27.65
2023-03-17T21:47:53.309Z,24.73
2023-03-17T21:50:29.241Z,20.88
2023-03-17T21:53:01.372Z,21.75
2023-03-17T21:55:43.748Z,19.88
2023-03-17T21:58:15.852Z,24.08
2023-03-17T22:00:47.741Z,20.25
2023-03-17T22:03:18.879Z,21.27
2023-03-17T22:08:44.604Z,24.88
2023-03-17T22:11:27.366Z,28.50
2023-03-17T22:14:12.434Z,19.15
2023-03-17T22:16:53.523Z,20.63
2023-03-17T22:19:47.026Z,25.10
2023-03-17T22:22:36.314Z,25.23
2023-03-17T22:25:06.786Z,24.67
2023-03-17T22:27:44.314Z,19.67
2023-03-17T22:35:56.983Z,23.88
2023-03-17T22:38:36.138Z,21.88
2023-03-17T22:44:44.337Z,23.52
2023-03-17T22:47:42.718Z,22.58
2023-03-17T22:50:11.990Z,22.98
2023-03-17T22:52:39.442Z,23.45
2023-03-17T22:55:15.131Z,27.55
2023-03-17T22:57:42.153Z,24.00
2023-03-17T23:00:16.800Z,23.15
2023-03-17T23:02:46.666Z,21.27
2023-03-17T23:05:15.071Z,23.38
2023-03-17T23:07:51.768Z,23.70
2023-03-17T23:10:25.026Z,26.00
2023-03-17T23:12:52.919Z,22.55
2023-03-17T23:15:25.361Z,22.27
2023-03-17T23:18:04.130Z,26.73
2023-03-17T23:20:31.763Z,19.90
2023-03-17T23:22:59.984Z,27.10
2023-03-17T23:25:36.863Z,28.50
2023-03-17T23:30:48.989Z,23.40
2023-03-17T23:33:21.828Z,25.13
2023-03-17T23:35:50.336Z,23.35
2023-03-17T23:38:24.229Z,20.80
2023-03-17T23:40:57.318Z,30.88
2023-03-17T23:43:26.796Z,22.33
2023-03-17T23:45:55.667Z,21.55
2023-03-17T23:48:23.169Z,25.52
2023-03-17T23:50:55.060Z,22.83
2023-03-17T23:53:24.373Z,28.48
2023-03-17T23:55:53.256Z,24.70
